PWSweather.com
Personal Weather Stations
Station Observations
METEOGM
JesiIT 60035

JesiIT 60035

Lat: 43.525017, Lon: 13.20302

Elevation: 633

Station Type: Honeywell TE923 IROX PRO-X2

http://www.meteogm.it

Latest ConditionsUpdated 2:55:06 AM GMT+01:01 Sunday, Feb 24, 2019
Currently Today's Max Today's Min Today's Average
Temperature 36.8°F2.7°C 37.5°F3.1°C 36.6°F2.6°C 36.9°F2.7°C
Dew Point 23.4°F-4.8°C 24.5°F-4.2°C 22.6°F-5.2°C 23.5°F-4.7°C
Winds 9.0 mph E14.5 kmh E 12.0 mph -19.3 kmh - - 8.2 mph 13.2 kmh
Wind Gusts 15.0 mph24.1 kmh 21.0 mph33.8 kmh - -
Humidity 58% 59% 56% 58%
Pressure 30.24 in1024.0 mb 30.26 in1024.7 mb 30.24 in1024.0 mb -
Hour Temp Dew Point Humidity Winds Wind Gusts Pressure Precip Precip Rate Daily Precip Total
02:55 AM 36.8°F2.7°C 23.4°F-4.8°C 58% 9.0 mph E14.5 kmh E 15.0 mph24.1 kmh 30.24 in1024.0 mb 0.00 in0.0 mm 0.00 in0.0 mm 0.00 in0.0 mm
02:50 AM 36.8°F2.7°C 23.4°F-4.8°C 58% 10.0 mph NE16.1 kmh NE 13.0 mph20.9 kmh 30.24 in1024.0 mb 0.00 in0.0 mm 0.00 in0.0 mm 0.00 in0.0 mm
02:45 AM 36.8°F2.7°C 23.4°F-4.8°C 58% 10.0 mph ENE16.1 kmh ENE 14.0 mph22.5 kmh 30.24 in1024.0 mb 0.00 in0.0 mm 0.00 in0.0 mm 0.00 in0.0 mm
02:40 AM 36.8°F2.7°C 23.4°F-4.8°C 58% 9.0 mph NNE14.5 kmh NNE 14.0 mph22.5 kmh 30.25 in1024.4 mb 0.00 in0.0 mm 0.00 in0.0 mm 0.00 in0.0 mm
02:35 AM 36.8°F2.7°C 23.4°F-4.8°C 58% 8.0 mph ENE12.9 kmh ENE 15.0 mph24.1 kmh 30.25 in1024.4 mb 0.00 in0.0 mm 0.00 in0.0 mm 0.00 in0.0 mm
02:30 AM 36.8°F2.7°C 23.4°F-4.8°C 58% 7.0 mph ENE11.3 kmh ENE 11.0 mph17.7 kmh 30.25 in1024.4 mb 0.00 in0.0 mm 0.00 in0.0 mm 0.00 in0.0 mm
02:25 AM 36.8°F2.7°C 23.4°F-4.8°C 58% 7.0 mph E11.3 kmh E 10.0 mph16.1 kmh 30.25 in1024.4 mb 0.00 in0.0 mm 0.00 in0.0 mm 0.00 in0.0 mm
02:20 AM 36.8°F2.7°C 23.4°F-4.8°C 58% 9.0 mph NE14.5 kmh NE 17.0 mph27.4 kmh 30.25 in1024.4 mb 0.00 in0.0 mm 0.00 in0.0 mm 0.00 in0.0 mm
02:15 AM 36.8°F2.7°C 23.8°F-4.6°C 59% 9.0 mph ENE14.5 kmh ENE 17.0 mph27.4 kmh 30.25 in1024.4 mb 0.00 in0.0 mm 0.00 in0.0 mm 0.00 in0.0 mm
02:10 AM 36.8°F2.7°C 23.8°F-4.6°C 59% 9.0 mph SW14.5 kmh SW 13.0 mph20.9 kmh 30.25 in1024.4 mb 0.00 in0.0 mm 0.00 in0.0 mm 0.00 in0.0 mm
02:05 AM 36.8°F2.7°C 23.4°F-4.8°C 58% 9.0 mph NE14.5 kmh NE 12.0 mph19.3 kmh 30.25 in1024.4 mb 0.00 in0.0 mm 0.00 in0.0 mm 0.00 in0.0 mm
02:00 AM 36.8°F2.7°C 23.4°F-4.8°C 58% 9.0 mph ENE14.5 kmh ENE 15.0 mph24.1 kmh 30.25 in1024.4 mb 0.00 in0.0 mm 0.00 in0.0 mm 0.00 in0.0 mm
01:55 AM 36.8°F2.7°C 23.4°F-4.8°C 58% 9.0 mph NNE14.5 kmh NNE 14.0 mph22.5 kmh 30.25 in1024.4 mb 0.00 in0.0 mm 0.00 in0.0 mm 0.00 in0.0 mm
01:50 AM 36.8°F2.7°C 23.4°F-4.8°C 58% 9.0 mph NE14.5 kmh NE 14.0 mph22.5 kmh 30.25 in1024.4 mb 0.00 in0.0 mm 0.00 in0.0 mm 0.00 in0.0 mm
01:45 AM 36.8°F2.7°C 23.8°F-4.6°C 59% 8.0 mph NNE12.9 kmh NNE 10.0 mph16.1 kmh 30.25 in1024.4 mb 0.00 in0.0 mm 0.00 in0.0 mm 0.00 in0.0 mm
01:40 AM 37.0°F2.8°C 24.0°F-4.4°C 59% 8.0 mph NNE12.9 kmh NNE 13.0 mph20.9 kmh 30.24 in1024.0 mb 0.00 in0.0 mm 0.00 in0.0 mm 0.00 in0.0 mm
01:35 AM 36.8°F2.7°C 23.4°F-4.8°C 58% 8.0 mph NE12.9 kmh NE 13.0 mph20.9 kmh 30.24 in1024.0 mb 0.00 in0.0 mm 0.00 in0.0 mm 0.00 in0.0 mm
01:30 AM 36.8°F2.7°C 23.4°F-4.8°C 58% 9.0 mph ENE14.5 kmh ENE 10.0 mph16.1 kmh 30.24 in1024.0 mb 0.00 in0.0 mm 0.00 in0.0 mm 0.00 in0.0 mm
01:25 AM 36.8°F2.7°C 23.4°F-4.8°C 58% 10.0 mph ENE16.1 kmh ENE 13.0 mph20.9 kmh 30.24 in1024.0 mb 0.00 in0.0 mm 0.00 in0.0 mm 0.00 in0.0 mm
01:20 AM 36.8°F2.7°C 23.4°F-4.8°C 58% 12.0 mph NE19.3 kmh NE 16.0 mph25.7 kmh 30.25 in1024.4 mb 0.00 in0.0 mm 0.00 in0.0 mm 0.00 in0.0 mm
01:15 AM 36.8°F2.7°C 23.8°F-4.6°C 59% 11.0 mph ESE17.7 kmh ESE 21.0 mph33.8 kmh 30.25 in1024.4 mb 0.00 in0.0 mm 0.00 in0.0 mm 0.00 in0.0 mm
01:10 AM 36.8°F2.7°C 23.4°F-4.8°C 58% 10.0 mph NE16.1 kmh NE 15.0 mph24.1 kmh 30.25 in1024.4 mb 0.00 in0.0 mm 0.00 in0.0 mm 0.00 in0.0 mm
01:05 AM 36.6°F2.6°C 23.3°F-4.8°C 58% 9.0 mph NE14.5 kmh NE 11.0 mph17.7 kmh 30.25 in1024.4 mb 0.00 in0.0 mm 0.00 in0.0 mm 0.00 in0.0 mm
01:00 AM 36.8°F2.7°C 22.6°F-5.2°C 56% 9.0 mph NE14.5 kmh NE 13.0 mph20.9 kmh 30.25 in1024.4 mb 0.00 in0.0 mm 0.00 in0.0 mm 0.00 in0.0 mm
12:55 AM 36.8°F2.7°C 23.0°F-5.0°C 57% 9.0 mph ENE14.5 kmh ENE 17.0 mph27.4 kmh 30.25 in1024.4 mb 0.00 in0.0 mm 0.00 in0.0 mm 0.00 in0.0 mm
12:50 AM 36.6°F2.6°C 23.3°F-4.8°C 58% 8.0 mph ENE12.9 kmh ENE 12.0 mph19.3 kmh 30.25 in1024.4 mb 0.00 in0.0 mm 0.00 in0.0 mm 0.00 in0.0 mm
12:45 AM 36.8°F2.7°C 23.4°F-4.8°C 58% 7.0 mph 11.3 kmh 8.0 mph12.9 kmh 30.25 in1024.4 mb 0.00 in0.0 mm 0.00 in0.0 mm 0.00 in0.0 mm
12:40 AM 36.8°F2.7°C 23.4°F-4.8°C 58% 5.0 mph ENE8.0 kmh ENE 7.0 mph11.3 kmh 30.26 in1024.7 mb 0.00 in0.0 mm 0.00 in0.0 mm 0.00 in0.0 mm
12:35 AM 36.8°F2.7°C 23.4°F-4.8°C 58% 6.0 mph E9.7 kmh E 6.0 mph9.7 kmh 30.26 in1024.7 mb 0.00 in0.0 mm 0.00 in0.0 mm 0.00 in0.0 mm
12:30 AM 37.0°F2.8°C 23.6°F-4.7°C 58% 7.0 mph NE11.3 kmh NE 14.0 mph22.5 kmh 30.26 in1024.7 mb 0.00 in0.0 mm 0.00 in0.0 mm 0.00 in0.0 mm
12:25 AM 37.0°F2.8°C 23.6°F-4.7°C 58% 7.0 mph NNE11.3 kmh NNE 10.0 mph16.1 kmh 30.26 in1024.7 mb 0.00 in0.0 mm 0.00 in0.0 mm 0.00 in0.0 mm
12:20 AM 37.2°F2.9°C 23.8°F-4.6°C 58% 5.0 mph ENE8.0 kmh ENE 9.0 mph14.5 kmh 30.25 in1024.4 mb 0.00 in0.0 mm 0.00 in0.0 mm 0.00 in0.0 mm
12:15 AM 37.0°F2.8°C 23.6°F-4.7°C 58% 4.0 mph NNW6.4 kmh NNW 2.0 mph3.2 kmh 30.25 in1024.4 mb 0.00 in0.0 mm 0.00 in0.0 mm 0.00 in0.0 mm
12:10 AM 37.4°F3.0°C 23.9°F-4.5°C 58% 5.0 mph NNE8.0 kmh NNE 7.0 mph11.3 kmh 30.25 in1024.4 mb 0.00 in0.0 mm 0.00 in0.0 mm 0.00 in0.0 mm
12:05 AM 37.4°F3.0°C 23.9°F-4.5°C 58% 6.0 mph NNW9.7 kmh NNW 11.0 mph17.7 kmh 30.25 in1024.4 mb 0.00 in0.0 mm 0.00 in0.0 mm 0.00 in0.0 mm
12:00 AM 37.5°F3.1°C 24.5°F-4.2°C 59% 8.0 mph 12.9 kmh 13.0 mph20.9 kmh 30.24 in1024.0 mb 0.00 in0.0 mm 0.00 in0.0 mm 0.00 in0.0 mm